Time;durP1;ratioP1;P1;durP2;ratioP2;P2;SDS_P1;SDS_P2;PMS_P1;PMS_P2;Temp;Humidity;BMP_temperature;BMP_pressure;BME280_temperature;BME280_humidity;BME280_pressure;Samples;Min_cycle;Max_cycle;Signal;HPM_P1;HPM_P2
2022/09/01 00:01:20;;;;;;;0.85;0.57;;;15.40;92.90;;;;;;5075385;28;20132;-73
2022/09/01 00:03:51;;;;;;;0.90;0.40;;;15.40;93.20;;;;;;5060702;28;20040;-73
2022/09/01 00:06:23;;;;;;;0.95;0.30;;;15.40;92.90;;;;;;5071998;28;20032;-74
2022/09/01 00:08:54;;;;;;;1.23;0.50;;;15.30;93.00;;;;;;5070857;28;20040;-73
2022/09/01 00:11:22;;;;;;;2.40;0.60;;;15.30;92.90;;;;;;5080510;28;20036;-73
2022/09/01 00:13:49;;;;;;;1.52;0.50;;;15.30;92.80;;;;;;5109885;27;20042;-73
2022/09/01 00:16:16;;;;;;;0.52;0.32;;;15.30;93.00;;;;;;5078993;28;20059;-73
2022/09/01 00:18:48;;;;;;;0.43;0.30;;;15.30;92.90;;;;;;5074200;28;20040;-73
2022/09/01 00:21:19;;;;;;;0.60;0.30;;;15.30;92.90;;;;;;5066659;28;20055;-73
2022/09/01 00:23:44;;;;;;;0.45;0.30;;;15.20;92.80;;;;;;5050130;28;20135;-73
2022/09/01 00:26:10;;;;;;;0.80;0.35;;;15.20;92.80;;;;;;5069405;28;20120;-73
2022/09/01 00:28:37;;;;;;;0.43;0.20;;;15.20;92.80;;;;;;5072515;28;20111;-73
2022/09/01 00:31:05;;;;;;;1.27;0.30;;;15.20;92.80;;;;;;5101830;27;20062;-73
2022/09/01 00:33:31;;;;;;;1.48;0.40;;;15.20;92.70;;;;;;5086271;28;20036;-73
2022/09/01 00:35:57;;;;;;;1.23;0.60;;;15.20;92.70;;;;;;5090294;28;20493;-73
2022/09/01 00:38:23;;;;;;;0.55;0.40;;;15.20;92.60;;;;;;5062909;28;20072;-73
2022/09/01 00:40:49;;;;;;;0.95;0.50;;;15.20;92.70;;;;;;5078644;28;20036;-73
2022/09/01 00:43:21;;;;;;;1.52;0.60;;;15.20;92.60;;;;;;5111191;27;20172;-73
2022/09/01 00:45:50;;;;;;;1.17;0.50;;;15.10;92.70;;;;;;5079782;28;20051;-73
2022/09/01 00:48:18;;;;;;;1.85;0.57;;;15.10;92.60;;;;;;5108493;27;20059;-73
2022/09/01 00:50:45;;;;;;;1.05;0.45;;;15.10;92.70;;;;;;5059793;28;20047;-73
2022/09/01 00:53:11;;;;;;;0.80;0.50;;;15.10;92.70;;;;;;5073583;28;20036;-73
2022/09/01 00:55:37;;;;;;;1.33;0.40;;;15.00;92.70;;;;;;5059189;28;20529;-73
2022/09/01 00:58:05;;;;;;;1.42;0.40;;;15.00;92.60;;;;;;5077368;28;20083;-73
2022/09/01 01:00:39;;;;;;;1.23;0.20;;;15.00;92.60;;;;;;5055517;28;20040;-73
2022/09/01 01:03:07;;;;;;;1.30;0.57;;;15.00;92.70;;;;;;5072356;28;20044;-73
2022/09/01 01:05:39;;;;;;;1.17;0.55;;;14.90;92.70;;;;;;5104773;27;20076;-73
2022/09/01 01:08:07;;;;;;;1.42;0.60;;;14.90;92.70;;;;;;5106725;27;20047;-73
2022/09/01 01:10:36;;;;;;;1.13;0.38;;;14.90;92.70;;;;;;5071115;28;20080;-73
2022/09/01 01:13:07;;;;;;;0.50;0.40;;;14.90;93.00;;;;;;5064160;28;20381;-73
2022/09/01 01:15:33;;;;;;;1.25;0.47;;;14.90;92.80;;;;;;5105313;27;20043;-73
2022/09/01 01:17:59;;;;;;;0.75;0.35;;;14.90;92.80;;;;;;5060212;28;20072;-73
2022/09/01 01:23:22;;;;;;;0.95;0.40;;;14.90;92.80;;;;;;5070202;28;20517;-73
2022/09/01 01:25:57;;;;;;;0.57;0.38;;;14.80;92.80;;;;;;5106936;27;20122;-73
2022/09/01 01:28:30;;;;;;;0.77;0.40;;;14.80;93.10;;;;;;5068987;28;20037;-73
2022/09/01 01:31:04;;;;;;;0.93;0.47;;;14.70;93.00;;;;;;5102048;27;20036;-73
2022/09/01 01:33:49;;;;;;;1.13;0.50;;;14.70;93.00;;;;;;5068245;28;20043;-73
2022/09/01 01:36:34;;;;;;;1.63;0.55;;;14.60;93.10;;;;;;5064238;28;20036;-73
2022/09/01 01:39:04;;;;;;;0.53;0.33;;;14.60;93.10;;;;;;5076801;28;20047;-73
2022/09/01 01:41:32;;;;;;;0.60;0.30;;;14.60;93.10;;;;;;5073350;28;20340;-73
2022/09/01 01:44:00;;;;;;;1.15;0.40;;;14.60;93.00;;;;;;5072505;28;20170;-73
2022/09/01 01:46:26;;;;;;;1.17;0.40;;;14.60;93.00;;;;;;5104562;27;20078;-73
2022/09/01 01:48:52;;;;;;;0.70;0.50;;;14.60;93.10;;;;;;5069779;28;20436;-73
2022/09/01 01:51:23;;;;;;;1.55;0.57;;;14.60;93.10;;;;;;5072099;28;20055;-73
2022/09/01 01:53:51;;;;;;;0.55;0.40;;;14.50;93.10;;;;;;5066782;28;20036;-73
2022/09/01 01:56:24;;;;;;;0.45;0.30;;;14.50;93.10;;;;;;5103416;27;20644;-73
2022/09/01 01:58:55;;;;;;;0.50;0.40;;;14.40;93.20;;;;;;5104998;27;20674;-73
2022/09/01 02:01:23;;;;;;;1.13;0.50;;;14.40;93.20;;;;;;5092645;28;20405;-73
2022/09/01 02:03:53;;;;;;;2.00;0.50;;;14.40;93.20;;;;;;5071708;28;20058;-73
2022/09/01 02:06:23;;;;;;;0.80;0.38;;;14.40;93.20;;;;;;5073772;28;20072;-73
2022/09/01 02:08:55;;;;;;;0.65;0.40;;;14.40;93.20;;;;;;5071402;28;20032;-73
2022/09/01 02:11:21;;;;;;;0.65;0.50;;;14.40;93.30;;;;;;5093427;28;20587;-73
2022/09/01 02:13:48;;;;;;;1.05;0.40;;;14.30;93.30;;;;;;5071466;28;21637;-73
2022/09/01 02:16:15;;;;;;;0.93;0.65;;;14.30;93.40;;;;;;5079422;28;20091;-73
2022/09/01 02:18:46;;;;;;;1.52;0.50;;;14.30;93.30;;;;;;5102881;27;20083;-73
2022/09/01 02:21:18;;;;;;;1.25;0.50;;;14.30;93.30;;;;;;5069909;28;20707;-73
2022/09/01 02:23:49;;;;;;;0.50;0.40;;;14.30;93.40;;;;;;5069452;28;20794;-73
2022/09/01 02:26:17;;;;;;;0.82;0.60;;;14.30;93.40;;;;;;5074264;28;20032;-73
2022/09/01 02:28:48;;;;;;;0.73;0.40;;;14.20;93.40;;;;;;5062032;28;20043;-73
2022/09/01 02:31:13;;;;;;;0.75;0.40;;;14.20;93.50;;;;;;5075732;28;20516;-73
2022/09/01 02:33:42;;;;;;;0.82;0.57;;;14.20;93.50;;;;;;5069580;28;20040;-73
2022/09/01 02:36:13;;;;;;;1.55;0.57;;;14.20;93.50;;;;;;5107070;27;20140;-73
2022/09/01 02:38:40;;;;;;;0.95;0.55;;;14.20;93.50;;;;;;5092616;28;20056;-73
2022/09/01 02:41:06;;;;;;;0.77;0.40;;;14.10;93.60;;;;;;5072978;28;20086;-73
2022/09/01 02:43:32;;;;;;;0.75;0.65;;;14.10;93.50;;;;;;5064687;28;20043;-73
2022/09/01 02:46:00;;;;;;;0.60;0.40;;;14.10;93.50;;;;;;5070839;28;20036;-73
2022/09/01 02:48:31;;;;;;;1.63;0.90;;;14.10;93.50;;;;;;5103585;28;20032;-73
2022/09/01 02:51:00;;;;;;;0.75;0.50;;;14.20;93.50;;;;;;5073542;28;20504;-73
2022/09/01 02:53:30;;;;;;;1.08;0.57;;;14.20;93.50;;;;;;5072865;28;20081;-73
2022/09/01 02:55:58;;;;;;;1.23;0.60;;;14.20;93.40;;;;;;5048869;28;20131;-73
2022/09/01 02:58:39;;;;;;;0.82;0.43;;;14.10;93.40;;;;;;5101568;27;20036;-73
2022/09/01 03:01:13;;;;;;;1.25;0.55;;;14.10;93.40;;;;;;5070353;28;20106;-73
2022/09/01 03:03:38;;;;;;;0.43;0.40;;;14.10;93.50;;;;;;5075157;28;20139;-73
2022/09/01 03:06:11;;;;;;;0.90;0.40;;;14.10;93.50;;;;;;5074761;28;20495;-73
2022/09/01 03:08:38;;;;;;;0.82;0.40;;;14.10;93.50;;;;;;5063354;28;20032;-73
2022/09/01 03:11:07;;;;;;;1.45;0.45;;;14.10;93.50;;;;;;5081258;28;20486;-72
2022/09/01 03:13:32;;;;;;;0.65;0.40;;;14.00;93.40;;;;;;5072322;28;20397;-73
2022/09/01 03:15:58;;;;;;;1.05;0.50;;;14.00;93.50;;;;;;5073553;28;20044;-73
2022/09/01 03:18:24;;;;;;;0.47;0.40;;;14.00;93.50;;;;;;5094882;28;20135;-72
2022/09/01 03:20:49;;;;;;;2.40;0.60;;;14.00;93.50;;;;;;5078881;28;20040;-73
2022/09/01 03:23:17;;;;;;;0.68;0.40;;;14.00;93.50;;;;;;5078306;28;20552;-73
2022/09/01 03:25:44;;;;;;;1.13;0.60;;;14.00;93.60;;;;;;5055844;28;20047;-73
2022/09/01 03:28:11;;;;;;;1.77;0.63;;;14.00;93.50;;;;;;5072741;28;20044;-73
2022/09/01 03:30:42;;;;;;;1.70;0.57;;;14.00;93.50;;;;;;5072990;28;20497;-73
2022/09/01 03:33:08;;;;;;;1.02;0.65;;;14.00;93.70;;;;;;5065043;28;20036;-72
2022/09/01 03:35:34;;;;;;;1.00;0.52;;;13.90;93.60;;;;;;5109059;27;20328;-72
2022/09/01 03:38:02;;;;;;;1.35;0.70;;;13.90;93.70;;;;;;5055360;28;20032;-73
2022/09/01 03:40:31;;;;;;;1.40;0.50;;;13.80;93.70;;;;;;5107882;27;20101;-73
2022/09/01 03:42:58;;;;;;;0.70;0.50;;;13.80;93.80;;;;;;5074677;28;20047;-72
2022/09/01 03:45:24;;;;;;;0.93;0.43;;;13.80;93.80;;;;;;5079887;28;20096;-73
2022/09/01 03:47:51;;;;;;;1.05;0.50;;;13.80;93.80;;;;;;5091241;28;20024;-73
2022/09/01 03:50:20;;;;;;;1.45;0.60;;;13.80;93.80;;;;;;5077432;28;20028;-72
2022/09/01 03:52:48;;;;;;;0.88;0.50;;;13.80;93.80;;;;;;5077001;28;20040;-73
2022/09/01 03:55:22;;;;;;;1.40;0.68;;;13.80;93.90;;;;;;5075063;28;20037;-73
2022/09/01 03:57:56;;;;;;;1.00;0.47;;;13.80;93.90;;;;;;5073223;28;20040;-73
2022/09/01 04:00:25;;;;;;;1.30;0.60;;;13.80;93.90;;;;;;5103188;27;20097;-73
2022/09/01 04:02:55;;;;;;;0.70;0.40;;;13.80;93.90;;;;;;5093370;28;20051;-72
2022/09/01 04:05:23;;;;;;;1.23;0.50;;;13.80;93.90;;;;;;5066999;28;20037;-72
2022/09/01 04:07:49;;;;;;;1.00;0.70;;;13.80;93.90;;;;;;5051873;28;20032;-72
2022/09/01 04:10:17;;;;;;;1.42;0.60;;;13.80;94.00;;;;;;5106709;27;20039;-72
2022/09/01 04:12:44;;;;;;;1.02;0.65;;;13.70;94.00;;;;;;5103674;27;20585;-73
2022/09/01 04:15:11;;;;;;;1.27;0.73;;;13.70;94.00;;;;;;5061085;28;20105;-73
2022/09/01 04:20:22;;;;;;;1.13;0.50;;;13.70;94.00;;;;;;5074118;28;20068;-72
2022/09/01 04:22:49;;;;;;;1.08;0.45;;;13.80;94.10;;;;;;5090783;28;20055;-73
2022/09/01 04:25:16;;;;;;;1.10;0.50;;;13.70;94.00;;;;;;5091511;28;20048;-73
2022/09/01 04:27:41;;;;;;;0.85;0.40;;;13.80;94.10;;;;;;5105523;27;20045;-72
2022/09/01 04:30:11;;;;;;;1.23;0.50;;;13.80;94.10;;;;;;5053248;28;20426;-72
2022/09/01 04:32:37;;;;;;;2.17;0.52;;;13.80;94.20;;;;;;5061471;28;20028;-73
2022/09/01 04:35:04;;;;;;;0.73;0.45;;;13.80;94.10;;;;;;5074245;28;20036;-72
2022/09/01 04:37:30;;;;;;;0.82;0.52;;;13.80;94.10;;;;;;5066864;28;20549;-73
2022/09/01 04:39:56;;;;;;;1.60;0.40;;;13.80;94.10;;;;;;5097271;28;20067;-73
2022/09/01 04:42:25;;;;;;;1.00;0.60;;;13.80;94.10;;;;;;5090897;28;20101;-73
2022/09/01 04:44:53;;;;;;;0.75;0.40;;;13.80;94.10;;;;;;5071278;28;20044;-73
2022/09/01 04:47:28;;;;;;;0.80;0.50;;;13.80;94.10;;;;;;5061757;28;20036;-73
2022/09/01 04:49:56;;;;;;;1.35;0.57;;;13.80;94.20;;;;;;5072158;28;20055;-72
2022/09/01 04:52:22;;;;;;;1.20;0.52;;;13.90;94.30;;;;;;5061898;28;20035;-73
2022/09/01 04:54:48;;;;;;;2.45;0.98;;;13.80;94.10;;;;;;5072353;28;20127;-72
2022/09/01 04:57:15;;;;;;;0.43;0.32;;;13.90;94.20;;;;;;5067827;28;20144;-73
2022/09/01 04:59:41;;;;;;;0.98;0.57;;;13.80;94.10;;;;;;5062029;28;20044;-72
2022/09/01 05:02:08;;;;;;;0.80;0.47;;;13.90;94.30;;;;;;5059868;28;20427;-72
2022/09/01 05:04:34;;;;;;;0.60;0.40;;;13.90;94.20;;;;;;5104694;27;20893;-72
2022/09/01 05:07:01;;;;;;;0.68;0.40;;;13.90;94.30;;;;;;5068545;28;20174;-72
2022/09/01 05:09:28;;;;;;;1.52;0.70;;;13.90;94.40;;;;;;5071408;28;20067;-72
2022/09/01 05:11:56;;;;;;;0.80;0.50;;;13.90;94.40;;;;;;5105917;27;20047;-72
2022/09/01 05:14:23;;;;;;;0.90;0.40;;;13.90;94.40;;;;;;5058239;28;20745;-72
2022/09/01 05:16:49;;;;;;;0.60;0.40;;;13.90;94.40;;;;;;5069573;28;20036;-72
2022/09/01 05:19:16;;;;;;;0.82;0.50;;;13.90;94.40;;;;;;5062028;28;20040;-73
2022/09/01 05:21:44;;;;;;;0.88;0.38;;;13.90;94.40;;;;;;5072256;28;20500;-72
2022/09/01 05:24:15;;;;;;;0.82;0.40;;;13.90;94.50;;;;;;5057971;28;20052;-73
2022/09/01 05:26:43;;;;;;;0.60;0.32;;;13.90;94.50;;;;;;5071051;28;20822;-72
2022/09/01 05:29:12;;;;;;;1.02;0.40;;;13.90;94.40;;;;;;5076691;28;20123;-72
2022/09/01 05:31:44;;;;;;;0.60;0.38;;;14.00;94.50;;;;;;5098925;27;20036;-73
2022/09/01 05:34:11;;;;;;;0.90;0.50;;;14.00;94.50;;;;;;5089011;27;20441;-72
2022/09/01 05:36:41;;;;;;;1.75;0.85;;;13.90;94.50;;;;;;5071984;28;20717;-72
2022/09/01 05:39:09;;;;;;;1.23;0.40;;;13.90;94.50;;;;;;5102354;27;20036;-72
2022/09/01 05:41:36;;;;;;;1.15;0.63;;;14.00;94.50;;;;;;5062367;28;20436;-72
2022/09/01 05:44:06;;;;;;;0.90;0.43;;;13.90;94.50;;;;;;5105722;27;20058;-72
2022/09/01 05:46:34;;;;;;;1.42;0.40;;;14.00;94.60;;;;;;5101411;27;20116;-72
2022/09/01 05:49:01;;;;;;;1.10;0.60;;;14.00;94.50;;;;;;5067030;28;20405;-72
2022/09/01 05:51:29;;;;;;;1.35;0.50;;;14.00;94.70;;;;;;5107888;27;20159;-72
2022/09/01 05:53:58;;;;;;;0.80;0.40;;;14.00;94.60;;;;;;5077445;28;20036;-73
2022/09/01 05:56:28;;;;;;;1.15;0.80;;;14.00;94.50;;;;;;5073812;28;20036;-72
2022/09/01 05:58:54;;;;;;;0.70;0.47;;;14.00;94.50;;;;;;5058866;28;20654;-72
2022/09/01 06:01:25;;;;;;;0.85;0.50;;;14.00;94.60;;;;;;5069612;28;20082;-73
2022/09/01 06:03:53;;;;;;;0.60;0.30;;;14.00;94.60;;;;;;5069531;28;20047;-73
2022/09/01 06:06:24;;;;;;;1.20;0.50;;;14.00;94.60;;;;;;5061918;28;20504;-73
2022/09/01 06:08:50;;;;;;;0.60;0.40;;;14.10;94.70;;;;;;5078568;28;20048;-73
2022/09/01 06:11:19;;;;;;;0.50;0.40;;;14.00;94.60;;;;;;5071289;28;20039;-72
2022/09/01 06:13:46;;;;;;;1.30;0.77;;;14.10;94.60;;;;;;5068097;28;20721;-72
2022/09/01 06:16:13;;;;;;;0.85;0.45;;;14.10;94.60;;;;;;5102502;27;20438;-73
2022/09/01 06:18:39;;;;;;;2.15;0.70;;;14.10;94.70;;;;;;5066995;28;20131;-72
2022/09/01 06:21:07;;;;;;;0.90;0.50;;;14.10;94.60;;;;;;5098863;27;20674;-72
2022/09/01 06:23:33;;;;;;;1.02;0.80;;;14.10;94.70;;;;;;5100207;27;20044;-72
2022/09/01 06:25:59;;;;;;;3.20;0.50;;;14.20;94.70;;;;;;5069668;28;20675;-73
2022/09/01 06:28:25;;;;;;;0.77;0.50;;;14.20;94.70;;;;;;5075997;28;20144;-77
2022/09/01 06:30:51;;;;;;;1.05;0.57;;;14.20;94.70;;;;;;5100602;27;20549;-73
2022/09/01 06:33:18;;;;;;;1.20;0.60;;;14.20;94.70;;;;;;5048132;28;20257;-73
2022/09/01 06:35:46;;;;;;;0.98;0.52;;;14.30;94.70;;;;;;5095432;28;20039;-73
2022/09/01 06:38:12;;;;;;;1.25;0.38;;;14.40;94.70;;;;;;5092540;28;20036;-73
2022/09/01 06:40:40;;;;;;;0.90;0.52;;;14.40;94.80;;;;;;5065389;28;20048;-73
2022/09/01 06:43:07;;;;;;;1.05;0.50;;;14.40;94.80;;;;;;5068912;28;20040;-74
2022/09/01 06:45:39;;;;;;;0.70;0.50;;;14.40;94.70;;;;;;5067925;28;20072;-73
2022/09/01 06:48:05;;;;;;;1.10;0.55;;;14.50;94.80;;;;;;5078246;28;20043;-73
2022/09/01 06:50:30;;;;;;;0.70;0.35;;;14.50;94.80;;;;;;5070085;28;20033;-73
2022/09/01 06:53:13;;;;;;;0.95;0.60;;;14.50;94.80;;;;;;5072035;28;20036;-73
2022/09/01 06:55:40;;;;;;;1.15;0.47;;;14.60;94.80;;;;;;5061674;28;20044;-73
2022/09/01 06:58:08;;;;;;;3.08;0.70;;;14.60;94.70;;;;;;5065466;28;20056;-73
2022/09/01 07:00:41;;;;;;;0.47;0.32;;;14.70;94.70;;;;;;5095876;28;20040;-73
2022/09/01 07:03:12;;;;;;;0.93;0.50;;;14.80;94.70;;;;;;5064626;28;20033;-73
2022/09/01 07:05:40;;;;;;;1.58;0.68;;;14.80;94.70;;;;;;5047866;28;20101;-74
2022/09/01 07:08:09;;;;;;;1.00;0.65;;;14.90;94.70;;;;;;5100746;28;20036;-72
2022/09/01 07:10:44;;;;;;;1.08;0.60;;;15.00;94.50;;;;;;5066873;28;20456;-72
2022/09/01 07:13:21;;;;;;;1.00;0.43;;;15.00;94.60;;;;;;5076905;28;20089;-73
2022/09/01 07:15:48;;;;;;;1.08;0.60;;;15.10;94.60;;;;;;5062823;28;20029;-73
2022/09/01 07:18:16;;;;;;;1.20;0.50;;;15.20;94.50;;;;;;5094852;28;20390;-73
2022/09/01 07:20:43;;;;;;;4.53;0.50;;;15.20;94.50;;;;;;5083380;28;20055;-73
2022/09/01 07:23:10;;;;;;;0.93;0.35;;;15.30;94.50;;;;;;5085335;28;20078;-74
2022/09/01 07:25:42;;;;;;;0.80;0.50;;;15.30;94.40;;;;;;5068850;28;20498;-73
2022/09/01 07:28:09;;;;;;;3.50;0.70;;;15.40;94.40;;;;;;5096696;28;20033;-73
2022/09/01 07:30:42;;;;;;;1.27;0.55;;;15.40;94.40;;;;;;5064018;28;20513;-73
2022/09/01 07:33:10;;;;;;;1.85;1.02;;;15.50;94.30;;;;;;5064412;28;20281;-73
2022/09/01 07:35:37;;;;;;;1.02;0.50;;;15.50;94.30;;;;;;5066894;28;20040;-73
2022/09/01 07:38:06;;;;;;;1.10;0.52;;;15.50;94.20;;;;;;5064643;28;20044;-73
2022/09/01 07:40:35;;;;;;;1.25;0.52;;;15.60;94.20;;;;;;5052541;28;20039;-73
2022/09/01 07:43:04;;;;;;;0.60;0.38;;;15.70;94.10;;;;;;5064148;28;20489;-74
2022/09/01 07:45:30;;;;;;;0.60;0.40;;;15.70;94.10;;;;;;5078715;28;20036;-73
2022/09/01 07:48:01;;;;;;;0.55;0.40;;;15.80;94.10;;;;;;5065575;28;20550;-73
2022/09/01 07:50:29;;;;;;;1.02;0.60;;;15.80;94.00;;;;;;5076770;28;20035;-73
2022/09/01 07:52:55;;;;;;;1.38;0.60;;;15.80;94.00;;;;;;5084215;28;20512;-76
2022/09/01 07:55:20;;;;;;;1.17;0.50;;;15.90;94.00;;;;;;5082668;28;20044;-70
2022/09/01 07:57:46;;;;;;;0.90;0.45;;;16.00;93.90;;;;;;5070520;28;20455;-73
2022/09/01 08:00:14;;;;;;;1.45;0.40;;;16.00;93.90;;;;;;5065931;28;20128;-73
2022/09/01 08:02:43;;;;;;;1.50;0.43;;;16.00;93.90;;;;;;5072582;28;20249;-73
2022/09/01 08:05:12;;;;;;;0.80;0.47;;;16.10;93.80;;;;;;5081055;28;20048;-73
2022/09/01 08:07:38;;;;;;;1.17;0.60;;;16.20;93.70;;;;;;5081360;28;20036;-72
2022/09/01 08:10:06;;;;;;;1.35;0.60;;;16.20;93.60;;;;;;5072621;28;20502;-73
2022/09/01 08:12:32;;;;;;;1.30;0.60;;;16.20;93.60;;;;;;5068285;28;20029;-73
2022/09/01 08:14:57;;;;;;;1.63;0.43;;;16.30;93.50;;;;;;5101233;27;20044;-72
2022/09/01 08:17:23;;;;;;;0.82;0.52;;;16.40;93.40;;;;;;5106049;27;20040;-72
2022/09/01 08:19:49;;;;;;;2.00;0.73;;;16.40;93.20;;;;;;5059385;28;20154;-73
2022/09/01 08:22:15;;;;;;;0.70;0.40;;;16.50;93.20;;;;;;5095973;28;20074;-73
2022/09/01 08:24:41;;;;;;;0.80;0.40;;;16.60;93.20;;;;;;5061866;28;20093;-72
2022/09/01 08:27:07;;;;;;;0.95;0.50;;;16.60;93.30;;;;;;5070519;28;20043;-73
2022/09/01 08:29:33;;;;;;;0.95;0.40;;;16.60;93.10;;;;;;5069133;28;20040;-66
2022/09/01 08:31:59;;;;;;;1.33;0.63;;;16.70;93.10;;;;;;5102185;27;20036;-69
2022/09/01 08:34:25;;;;;;;1.08;0.40;;;16.70;93.00;;;;;;5075219;28;20063;-66
2022/09/01 08:36:51;;;;;;;1.23;0.50;;;16.70;93.10;;;;;;5070200;28;21273;-73
2022/09/01 08:39:17;;;;;;;0.82;0.38;;;16.80;93.10;;;;;;5060946;28;20068;-69
2022/09/01 08:42:01;;;;;;;1.92;0.40;;;16.80;93.00;;;;;;5074661;28;20468;-70
2022/09/01 08:44:49;;;;;;;0.68;0.47;;;16.90;92.70;;;;;;5070602;28;20042;-71
2022/09/01 08:47:17;;;;;;;0.65;0.32;;;17.00;93.20;;;;;;5099760;27;20039;-71
2022/09/01 08:49:45;;;;;;;0.77;0.50;;;17.00;92.80;;;;;;5105660;27;20036;-71
2022/09/01 08:52:31;;;;;;;1.08;0.50;;;17.10;92.60;;;;;;5067714;28;20032;-72
2022/09/01 08:55:33;;;;;;;0.68;0.30;;;17.10;92.50;;;;;;5068613;28;20397;-72
2022/09/01 08:57:59;;;;;;;0.70;0.40;;;17.10;92.50;;;;;;5075394;28;20036;-72
2022/09/01 09:00:38;;;;;;;0.50;0.40;;;17.20;92.20;;;;;;5054890;28;20074;-72
2022/09/01 09:03:13;;;;;;;0.90;0.40;;;17.30;91.90;;;;;;5067270;28;20040;-72
2022/09/01 09:06:12;;;;;;;0.45;0.32;;;17.30;91.40;;;;;;5083493;28;20538;-72
2022/09/01 09:08:52;;;;;;;1.40;0.50;;;17.40;91.40;;;;;;5069714;28;20040;-72
2022/09/01 09:11:33;;;;;;;0.45;0.30;;;17.50;91.40;;;;;;5069125;28;20127;-72
2022/09/01 09:14:06;;;;;;;0.75;0.40;;;17.50;91.50;;;;;;5071053;28;20150;-72
2022/09/01 09:16:53;;;;;;;0.55;0.28;;;17.60;91.20;;;;;;5099830;27;20048;-70
2022/09/01 09:19:42;;;;;;;0.73;0.30;;;17.70;90.60;;;;;;5061790;28;20040;-72
2022/09/01 09:22:11;;;;;;;0.55;0.35;;;17.70;91.00;;;;;;5067566;28;20218;-72
2022/09/01 09:24:49;;;;;;;0.77;0.32;;;17.70;91.00;;;;;;5071652;28;20513;-72
2022/09/01 09:27:33;;;;;;;0.40;0.30;;;17.70;90.70;;;;;;5059668;28;20082;-72
2022/09/01 09:30:20;;;;;;;2.40;0.30;;;17.80;90.70;;;;;;5071052;28;20032;-72
2022/09/01 09:33:03;;;;;;;0.22;0.15;;;17.80;90.40;;;;;;5072732;28;20048;-71
2022/09/01 09:35:33;;;;;;;0.82;0.47;;;17.90;90.10;;;;;;5068935;28;20039;-71
2022/09/01 09:38:17;;;;;;;0.30;0.20;;;18.00;90.20;;;;;;5051527;28;20422;-72
2022/09/01 09:41:05;;;;;;;1.65;0.30;;;18.10;88.60;;;;;;5069180;28;20066;-71
2022/09/01 09:43:37;;;;;;;0.95;0.50;;;18.10;87.30;;;;;;5064316;28;20449;-72
2022/09/01 09:46:42;;;;;;;1.20;0.30;;;18.10;88.30;;;;;;5108186;27;20055;-72
2022/09/01 09:49:30;;;;;;;0.77;0.30;;;18.20;85.50;;;;;;5031470;28;20082;-72
2022/09/01 09:52:11;;;;;;;1.48;0.40;;;18.30;88.20;;;;;;5036283;28;20456;-72
2022/09/01 09:54:40;;;;;;;1.08;0.55;;;18.30;87.20;;;;;;5058456;28;20043;-71
2022/09/01 09:57:12;;;;;;;0.75;0.40;;;18.40;87.30;;;;;;5105418;27;20117;-72
2022/09/01 10:00:03;;;;;;;0.10;0.10;;;18.40;87.10;;;;;;5063463;28;20393;-72
2022/09/01 10:02:37;;;;;;;0.32;0.20;;;18.50;85.80;;;;;;5071957;28;20032;-73
2022/09/01 10:05:28;;;;;;;0.63;0.20;;;18.60;86.10;;;;;;5068068;28;20039;-76
2022/09/01 10:07:55;;;;;;;0.80;0.40;;;18.60;85.50;;;;;;5053785;28;20043;-77
2022/09/01 10:10:44;;;;;;;0.32;0.10;;;18.60;86.20;;;;;;5074712;28;20123;-77
2022/09/01 10:13:22;;;;;;;0.35;0.20;;;18.70;85.40;;;;;;5067295;28;20047;-77
2022/09/01 10:15:53;;;;;;;0.57;0.20;;;18.70;85.20;;;;;;5071440;28;20509;-78
2022/09/01 10:18:25;;;;;;;0.20;0.10;;;18.70;85.20;;;;;;5072543;28;20040;-78
2022/09/01 10:20:58;;;;;;;0.88;0.25;;;18.70;84.50;;;;;;5061292;28;20043;-78
2022/09/01 10:23:26;;;;;;;4.68;0.35;;;18.70;82.80;;;;;;5109406;27;20105;-77
2022/09/01 10:25:58;;;;;;;0.38;0.20;;;18.90;83.60;;;;;;5077872;28;20043;-77
2022/09/01 10:28:26;;;;;;;3.67;0.25;;;18.90;81.40;;;;;;5058868;28;20493;-77
2022/09/01 10:30:53;;;;;;;4.13;0.30;;;19.00;82.10;;;;;;5075051;28;20480;-77
2022/09/01 10:33:20;;;;;;;0.77;0.20;;;19.00;81.40;;;;;;5062076;28;20048;-77
2022/09/01 10:35:50;;;;;;;0.55;0.20;;;19.10;79.70;;;;;;5075875;28;20036;-77
2022/09/01 10:38:18;;;;;;;0.43;0.28;;;19.20;80.10;;;;;;5071429;28;20280;-78
2022/09/01 10:41:05;;;;;;;0.57;0.28;;;19.20;80.20;;;;;;5078478;28;20071;-77
2022/09/01 10:43:44;;;;;;;0.10;0.10;;;19.20;78.20;;;;;;5107187;28;20453;-78
2022/09/01 10:46:30;;;;;;;0.43;0.17;;;19.20;76.40;;;;;;5054419;28;20040;-78
2022/09/01 10:48:56;;;;;;;;;;;19.30;78.20;;;;;;5057069;28;20292;-78
2022/09/01 10:51:22;;;;;;;0.75;0.32;;;19.20;71.40;;;;;;5109866;28;20364;-77
2022/09/01 10:53:52;;;;;;;0.82;0.17;;;19.20;78.20;;;;;;5064944;28;20135;-77
2022/09/01 10:56:36;;;;;;;0.30;0.20;;;19.20;77.50;;;;;;5070834;28;20071;-77
2022/09/01 10:59:10;;;;;;;0.95;0.38;;;19.20;76.90;;;;;;5095105;28;20425;-77
2022/09/01 11:01:42;;;;;;;0.82;0.20;;;19.30;76.10;;;;;;5076069;28;20064;-78
2022/09/01 11:04:13;;;;;;;0.32;0.20;;;19.40;73.70;;;;;;5076291;28;20672;-77
2022/09/01 11:06:50;;;;;;;1.20;0.40;;;19.40;74.10;;;;;;5078103;28;20113;-77
2022/09/01 11:09:48;;;;;;;0.20;0.20;;;19.30;73.10;;;;;;5072391;28;20131;-77
2022/09/01 11:12:31;;;;;;;0.77;0.22;;;19.30;73.60;;;;;;5069855;28;20044;-77
2022/09/01 11:15:03;;;;;;;0.45;0.20;;;19.40;71.80;;;;;;5094050;28;20197;-77
2022/09/01 11:17:31;;;;;;;0.28;0.20;;;19.50;72.70;;;;;;5088413;28;20124;-77
2022/09/01 11:20:03;;;;;;;0.60;0.28;;;19.50;73.20;;;;;;5115263;27;20477;-77
2022/09/01 11:22:32;;;;;;;1.33;0.28;;;19.60;72.00;;;;;;5075786;28;20040;-76
2022/09/01 11:25:32;;;;;;;0.30;0.10;;;19.70;72.30;;;;;;5079982;28;20048;-77
2022/09/01 11:28:07;;;;;;;0.77;0.38;;;19.70;71.50;;;;;;5076705;28;20066;-77
2022/09/01 11:30:51;;;;;;;0.45;0.20;;;19.70;73.50;;;;;;5083923;28;20119;-77
2022/09/01 11:33:54;;;;;;;0.10;0.10;;;19.60;72.30;;;;;;5076342;28;20043;-77
2022/09/01 11:36:36;;;;;;;0.55;0.28;;;19.60;71.90;;;;;;5077432;28;20036;-77
2022/09/01 11:39:20;;;;;;;0.40;0.20;;;19.60;72.90;;;;;;5065328;28;20047;-77
2022/09/01 11:42:00;;;;;;;0.32;0.20;;;19.60;73.10;;;;;;5085414;27;20071;-78
2022/09/01 11:44:45;;;;;;;0.43;0.20;;;19.60;71.60;;;;;;5104416;27;20040;-76
2022/09/01 11:47:16;;;;;;;0.70;0.28;;;19.70;72.80;;;;;;5095767;27;21368;-77
2022/09/01 11:50:01;;;;;;;0.93;0.10;;;19.60;72.70;;;;;;5072250;28;20056;-77
2022/09/01 11:52:30;;;;;;;0.25;0.13;;;19.70;69.30;;;;;;5089134;28;20040;-77
2022/09/01 11:54:57;;;;;;;0.73;0.32;;;19.70;71.70;;;;;;5066388;28;20036;-76
2022/09/01 11:57:29;;;;;;;0.98;0.40;;;19.70;72.30;;;;;;5111144;27;20524;-77
2022/09/01 11:59:57;;;;;;;0.35;0.35;;;19.70;71.70;;;;;;5106416;27;20075;-77
2022/09/01 12:02:32;;;;;;;0.40;0.30;;;19.80;71.60;;;;;;5074378;28;20051;-77
2022/09/01 12:04:59;;;;;;;0.95;0.32;;;19.80;70.30;;;;;;5108283;27;20048;-77
2022/09/01 12:07:38;;;;;;;0.10;0.10;;;19.80;71.30;;;;;;5108984;27;20043;-77
2022/09/01 12:10:18;;;;;;;0.32;0.20;;;19.80;70.80;;;;;;5070578;28;20036;-77
2022/09/01 12:12:44;;;;;;;0.75;0.40;;;19.80;70.60;;;;;;5054356;28;20041;-77
2022/09/01 12:15:17;;;;;;;1.75;0.30;;;19.80;71.50;;;;;;5078445;28;20072;-77
2022/09/01 12:17:43;;;;;;;0.35;0.15;;;19.90;71.00;;;;;;5077888;28;20050;-77
2022/09/01 12:20:29;;;;;;;0.22;0.20;;;19.90;71.70;;;;;;5079254;28;20032;-77
2022/09/01 12:22:57;;;;;;;0.20;0.20;;;20.00;67.80;;;;;;5096559;27;20109;-76
2022/09/01 12:25:29;;;;;;;1.55;0.43;;;20.00;70.40;;;;;;5073271;28;20148;-77
2022/09/01 12:27:56;;;;;;;0.28;0.22;;;20.00;70.10;;;;;;5081916;28;20041;-77
2022/09/01 12:30:22;;;;;;;0.20;0.20;;;20.00;70.40;;;;;;5070684;28;20044;-77
2022/09/01 12:32:48;;;;;;;0.52;0.30;;;19.90;70.50;;;;;;5073351;28;20695;-77
2022/09/01 12:35:25;;;;;;;0.80;0.32;;;20.00;70.00;;;;;;5071634;28;20040;-76
2022/09/01 12:38:11;;;;;;;0.15;0.15;;;20.00;69.20;;;;;;5074235;28;20048;-77
2022/09/01 12:40:37;;;;;;;0.10;0.10;;;20.00;70.60;;;;;;5073472;28;20433;-76
2022/09/01 12:43:02;;;;;;;0.63;0.30;;;20.10;69.00;;;;;;5060846;28;20181;-78
2022/09/01 12:45:45;;;;;;;0.25;0.20;;;20.20;68.60;;;;;;5068775;28;20044;-77
2022/09/01 12:48:29;;;;;;;0.45;0.20;;;20.20;66.60;;;;;;5056295;28;20032;-77
2022/09/01 12:51:00;;;;;;;0.20;0.20;;;20.30;66.90;;;;;;5072741;28;20051;-77
2022/09/01 12:53:28;;;;;;;0.28;0.20;;;20.30;68.30;;;;;;5107587;27;20044;-77
2022/09/01 12:56:16;;;;;;;0.30;0.20;;;20.30;68.10;;;;;;5055680;28;20036;-77
2022/09/01 12:58:46;;;;;;;0.68;0.20;;;20.30;68.20;;;;;;5074535;28;20051;-77
2022/09/01 13:01:24;;;;;;;0.32;0.20;;;20.40;67.90;;;;;;5077085;28;20133;-77
2022/09/01 13:04:27;;;;;;;0.17;0.13;;;20.50;63.70;;;;;;5059761;28;20039;-77
2022/09/01 13:06:55;;;;;;;0.50;0.30;;;20.50;64.10;;;;;;5076494;28;20055;-77
2022/09/01 13:09:21;;;;;;;0.47;0.30;;;20.50;66.20;;;;;;5074554;28;20040;-76
2022/09/01 13:11:48;;;;;;;0.40;0.10;;;20.50;66.50;;;;;;5075792;28;20043;-77
2022/09/01 13:14:14;;;;;;;0.50;0.10;;;20.50;66.70;;;;;;5077161;28;20373;-76